sensor_id;sensor_type;location;lat;lon;timestamp;temperature;humidity
14144;DHT22;7152;48.348;10.980;2022-11-15T00:01:48;5.00;99.90
14144;DHT22;7152;48.348;10.980;2022-11-15T00:04:14;5.00;99.90
14144;DHT22;7152;48.348;10.980;2022-11-15T00:06:39;5.10;99.90
14144;DHT22;7152;48.348;10.980;2022-11-15T00:09:05;5.20;99.90
14144;DHT22;7152;48.348;10.980;2022-11-15T00:11:31;5.10;99.90
14144;DHT22;7152;48.348;10.980;2022-11-15T00:13:57;5.20;99.90
14144;DHT22;7152;48.348;10.980;2022-11-15T00:16:24;5.20;99.90
14144;DHT22;7152;48.348;10.980;2022-11-15T00:18:50;5.10;99.90
14144;DHT22;7152;48.348;10.980;2022-11-15T00:21:17;5.20;99.90
14144;DHT22;7152;48.348;10.980;2022-11-15T00:23:43;5.20;99.90
14144;DHT22;7152;48.348;10.980;2022-11-15T00:26:13;5.20;99.90
14144;DHT22;7152;48.348;10.980;2022-11-15T00:28:40;5.10;99.90
14144;DHT22;7152;48.348;10.980;2022-11-15T00:31:13;5.10;99.90
14144;DHT22;7152;48.348;10.980;2022-11-15T00:33:39;5.10;99.90
14144;DHT22;7152;48.348;10.980;2022-11-15T00:36:07;5.00;99.90
14144;DHT22;7152;48.348;10.980;2022-11-15T00:38:35;4.90;99.90
14144;DHT22;7152;48.348;10.980;2022-11-15T00:41:02;4.90;99.90
14144;DHT22;7152;48.348;10.980;2022-11-15T00:43:28;4.80;99.90
14144;DHT22;7152;48.348;10.980;2022-11-15T00:45:53;4.80;99.90
14144;DHT22;7152;48.348;10.980;2022-11-15T00:48:19;4.80;99.90
14144;DHT22;7152;48.348;10.980;2022-11-15T00:50:45;4.80;99.90
14144;DHT22;7152;48.348;10.980;2022-11-15T00:53:11;4.70;99.90
14144;DHT22;7152;48.348;10.980;2022-11-15T00:55:36;4.70;99.90
14144;DHT22;7152;48.348;10.980;2022-11-15T00:58:02;4.60;99.90
14144;DHT22;7152;48.348;10.980;2022-11-15T01:00:28;4.60;99.90
14144;DHT22;7152;48.348;10.980;2022-11-15T01:02:53;4.60;99.90
14144;DHT22;7152;48.348;10.980;2022-11-15T01:05:19;4.50;99.90
14144;DHT22;7152;48.348;10.980;2022-11-15T01:07:45;4.50;99.90
14144;DHT22;7152;48.348;10.980;2022-11-15T01:10:11;4.50;99.90
14144;DHT22;7152;48.348;10.980;2022-11-15T01:12:37;4.50;99.90
14144;DHT22;7152;48.348;10.980;2022-11-15T01:15:04;4.50;99.90
14144;DHT22;7152;48.348;10.980;2022-11-15T01:17:30;4.50;99.90
14144;DHT22;7152;48.348;10.980;2022-11-15T01:19:56;4.50;99.90
14144;DHT22;7152;48.348;10.980;2022-11-15T01:22:21;4.40;99.90
14144;DHT22;7152;48.348;10.980;2022-11-15T01:24:49;4.40;99.90
14144;DHT22;7152;48.348;10.980;2022-11-15T01:27:15;4.40;99.90
14144;DHT22;7152;48.348;10.980;2022-11-15T01:29:40;4.30;99.90
14144;DHT22;7152;48.348;10.980;2022-11-15T01:32:06;4.30;99.90
14144;DHT22;7152;48.348;10.980;2022-11-15T01:34:32;4.30;99.90
14144;DHT22;7152;48.348;10.980;2022-11-15T01:36:57;4.30;99.90
14144;DHT22;7152;48.348;10.980;2022-11-15T01:39:23;4.30;99.90
14144;DHT22;7152;48.348;10.980;2022-11-15T01:41:48;4.30;99.90
14144;DHT22;7152;48.348;10.980;2022-11-15T01:47:04;4.20;99.90
14144;DHT22;7152;48.348;10.980;2022-11-15T01:49:33;4.20;99.90
14144;DHT22;7152;48.348;10.980;2022-11-15T01:52:03;4.30;99.90
14144;DHT22;7152;48.348;10.980;2022-11-15T01:54:30;4.10;99.90
14144;DHT22;7152;48.348;10.980;2022-11-15T01:57:02;4.10;99.90
14144;DHT22;7152;48.348;10.980;2022-11-15T01:59:29;4.00;99.90
14144;DHT22;7152;48.348;10.980;2022-11-15T02:01:55;4.00;99.90
14144;DHT22;7152;48.348;10.980;2022-11-15T02:04:38;4.00;99.90
14144;DHT22;7152;48.348;10.980;2022-11-15T02:07:05;3.90;99.90
14144;DHT22;7152;48.348;10.980;2022-11-15T02:09:32;3.90;99.90
14144;DHT22;7152;48.348;10.980;2022-11-15T02:11:59;3.90;99.90
14144;DHT22;7152;48.348;10.980;2022-11-15T02:14:26;3.90;99.90
14144;DHT22;7152;48.348;10.980;2022-11-15T02:19:56;3.80;99.90
14144;DHT22;7152;48.348;10.980;2022-11-15T02:28:27;3.80;99.90
14144;DHT22;7152;48.348;10.980;2022-11-15T02:34:28;3.80;99.90
14144;DHT22;7152;48.348;10.980;2022-11-15T02:39:58;3.80;99.90
14144;DHT22;7152;48.348;10.980;2022-11-15T02:42:32;3.70;99.90
14144;DHT22;7152;48.348;10.980;2022-11-15T02:45:29;3.70;99.90
14144;DHT22;7152;48.348;10.980;2022-11-15T02:47:57;3.60;99.90
14144;DHT22;7152;48.348;10.980;2022-11-15T02:50:29;3.60;99.90
14144;DHT22;7152;48.348;10.980;2022-11-15T02:52:57;3.60;99.90
14144;DHT22;7152;48.348;10.980;2022-11-15T02:55:30;3.60;99.90
14144;DHT22;7152;48.348;10.980;2022-11-15T03:00:22;3.50;99.90
14144;DHT22;7152;48.348;10.980;2022-11-15T03:02:52;3.60;99.90
14144;DHT22;7152;48.348;10.980;2022-11-15T03:05:46;3.60;99.90
14144;DHT22;7152;48.348;10.980;2022-11-15T03:08:37;3.60;99.90
14144;DHT22;7152;48.348;10.980;2022-11-15T03:11:17;3.60;99.90
14144;DHT22;7152;48.348;10.980;2022-11-15T03:19:34;3.60;99.90
14144;DHT22;7152;48.348;10.980;2022-11-15T03:22:04;3.50;99.90
14144;DHT22;7152;48.348;10.980;2022-11-15T03:24:34;3.50;99.90
14144;DHT22;7152;48.348;10.980;2022-11-15T03:27:02;3.40;99.90
14144;DHT22;7152;48.348;10.980;2022-11-15T03:29:33;3.40;99.90
14144;DHT22;7152;48.348;10.980;2022-11-15T03:32:22;3.30;99.90
14144;DHT22;7152;48.348;10.980;2022-11-15T03:34:53;3.30;99.90
14144;DHT22;7152;48.348;10.980;2022-11-15T03:37:23;3.20;99.90
14144;DHT22;7152;48.348;10.980;2022-11-15T03:39:50;3.20;99.90
14144;DHT22;7152;48.348;10.980;2022-11-15T03:42:30;3.10;99.90
14144;DHT22;7152;48.348;10.980;2022-11-15T03:45:18;3.10;99.90
14144;DHT22;7152;48.348;10.980;2022-11-15T03:50:23;3.00;99.90
14144;DHT22;7152;48.348;10.980;2022-11-15T03:52:50;3.00;99.90
14144;DHT22;7152;48.348;10.980;2022-11-15T03:55:18;3.00;99.90
14144;DHT22;7152;48.348;10.980;2022-11-15T03:57:44;3.00;99.90
14144;DHT22;7152;48.348;10.980;2022-11-15T04:00:11;3.00;99.90
14144;DHT22;7152;48.348;10.980;2022-11-15T04:02:37;2.90;99.90
14144;DHT22;7152;48.348;10.980;2022-11-15T04:05:03;2.90;99.90
14144;DHT22;7152;48.348;10.980;2022-11-15T04:07:29;3.00;99.90
14144;DHT22;7152;48.348;10.980;2022-11-15T04:09:55;3.00;99.90
14144;DHT22;7152;48.348;10.980;2022-11-15T04:12:35;3.00;99.90
14144;DHT22;7152;48.348;10.980;2022-11-15T04:15:07;3.10;99.90
14144;DHT22;7152;48.348;10.980;2022-11-15T04:17:44;3.10;99.90
14144;DHT22;7152;48.348;10.980;2022-11-15T04:20:19;3.10;99.90
14144;DHT22;7152;48.348;10.980;2022-11-15T04:23:09;3.10;99.90
14144;DHT22;7152;48.348;10.980;2022-11-15T04:25:55;3.20;99.90
14144;DHT22;7152;48.348;10.980;2022-11-15T04:28:21;3.20;99.90
14144;DHT22;7152;48.348;10.980;2022-11-15T04:30:47;3.10;99.90
14144;DHT22;7152;48.348;10.980;2022-11-15T04:33:13;3.10;99.90
14144;DHT22;7152;48.348;10.980;2022-11-15T04:35:38;3.10;99.90
14144;DHT22;7152;48.348;10.980;2022-11-15T04:38:06;3.10;99.90
14144;DHT22;7152;48.348;10.980;2022-11-15T04:40:32;3.10;99.90
14144;DHT22;7152;48.348;10.980;2022-11-15T04:42:58;3.10;99.90
14144;DHT22;7152;48.348;10.980;2022-11-15T04:45:23;3.10;99.90
14144;DHT22;7152;48.348;10.980;2022-11-15T04:47:49;3.10;99.90
14144;DHT22;7152;48.348;10.980;2022-11-15T04:50:15;3.10;99.90
14144;DHT22;7152;48.348;10.980;2022-11-15T04:52:51;3.10;99.90
14144;DHT22;7152;48.348;10.980;2022-11-15T04:55:17;3.10;99.90
14144;DHT22;7152;48.348;10.980;2022-11-15T04:57:43;3.00;99.90
14144;DHT22;7152;48.348;10.980;2022-11-15T05:00:11;3.00;99.90
14144;DHT22;7152;48.348;10.980;2022-11-15T05:02:37;2.90;99.90
14144;DHT22;7152;48.348;10.980;2022-11-15T05:05:21;2.90;99.90
14144;DHT22;7152;48.348;10.980;2022-11-15T05:07:48;2.90;99.90
14144;DHT22;7152;48.348;10.980;2022-11-15T05:10:14;2.80;99.90
14144;DHT22;7152;48.348;10.980;2022-11-15T05:12:39;2.80;99.90
14144;DHT22;7152;48.348;10.980;2022-11-15T05:15:06;2.80;99.90
14144;DHT22;7152;48.348;10.980;2022-11-15T05:17:31;2.80;99.90
14144;DHT22;7152;48.348;10.980;2022-11-15T05:19:57;2.80;99.90
14144;DHT22;7152;48.348;10.980;2022-11-15T05:22:23;2.90;99.90
14144;DHT22;7152;48.348;10.980;2022-11-15T05:24:48;2.80;99.90
14144;DHT22;7152;48.348;10.980;2022-11-15T05:27:14;2.80;99.90
14144;DHT22;7152;48.348;10.980;2022-11-15T05:29:39;2.80;99.90
14144;DHT22;7152;48.348;10.980;2022-11-15T05:32:06;2.80;99.90
14144;DHT22;7152;48.348;10.980;2022-11-15T05:34:33;2.80;99.90
14144;DHT22;7152;48.348;10.980;2022-11-15T05:36:59;2.80;99.90
14144;DHT22;7152;48.348;10.980;2022-11-15T05:39:25;2.80;99.90
14144;DHT22;7152;48.348;10.980;2022-11-15T05:42:14;2.80;99.90
14144;DHT22;7152;48.348;10.980;2022-11-15T05:44:47;2.80;99.90
14144;DHT22;7152;48.348;10.980;2022-11-15T05:47:17;2.80;99.90
14144;DHT22;7152;48.348;10.980;2022-11-15T05:49:45;2.80;99.90
14144;DHT22;7152;48.348;10.980;2022-11-15T05:52:16;2.80;99.90
14144;DHT22;7152;48.348;10.980;2022-11-15T05:54:42;2.80;99.90
14144;DHT22;7152;48.348;10.980;2022-11-15T05:57:08;2.80;99.90
14144;DHT22;7152;48.348;10.980;2022-11-15T05:59:34;2.80;99.90
14144;DHT22;7152;48.348;10.980;2022-11-15T06:02:00;2.80;99.90
14144;DHT22;7152;48.348;10.980;2022-11-15T06:04:26;2.80;99.90
14144;DHT22;7152;48.348;10.980;2022-11-15T06:06:51;2.70;99.90
14144;DHT22;7152;48.348;10.980;2022-11-15T06:09:17;2.70;99.90
14144;DHT22;7152;48.348;10.980;2022-11-15T06:11:43;2.70;99.90
14144;DHT22;7152;48.348;10.980;2022-11-15T06:14:08;2.70;99.90
14144;DHT22;7152;48.348;10.980;2022-11-15T06:16:34;2.70;99.90
14144;DHT22;7152;48.348;10.980;2022-11-15T06:18:59;2.70;99.90
14144;DHT22;7152;48.348;10.980;2022-11-15T06:21:25;2.70;99.90
14144;DHT22;7152;48.348;10.980;2022-11-15T06:23:53;2.70;99.90
14144;DHT22;7152;48.348;10.980;2022-11-15T06:26:19;2.60;99.90
14144;DHT22;7152;48.348;10.980;2022-11-15T06:28:45;2.70;99.90
14144;DHT22;7152;48.348;10.980;2022-11-15T06:31:11;2.60;99.90
14144;DHT22;7152;48.348;10.980;2022-11-15T06:33:38;2.50;99.90
14144;DHT22;7152;48.348;10.980;2022-11-15T06:36:05;2.60;99.90
14144;DHT22;7152;48.348;10.980;2022-11-15T06:38:31;2.60;99.90
14144;DHT22;7152;48.348;10.980;2022-11-15T06:41:05;2.60;99.90
14144;DHT22;7152;48.348;10.980;2022-11-15T06:43:33;2.60;99.90
14144;DHT22;7152;48.348;10.980;2022-11-15T06:45:59;2.60;99.90
14144;DHT22;7152;48.348;10.980;2022-11-15T06:48:26;2.70;99.90
14144;DHT22;7152;48.348;10.980;2022-11-15T06:50:57;2.60;99.90
14144;DHT22;7152;48.348;10.980;2022-11-15T06:53:24;2.60;99.90
14144;DHT22;7152;48.348;10.980;2022-11-15T06:55:50;2.60;99.90
14144;DHT22;7152;48.348;10.980;2022-11-15T06:58:16;2.60;99.90
14144;DHT22;7152;48.348;10.980;2022-11-15T07:00:42;2.60;99.90
14144;DHT22;7152;48.348;10.980;2022-11-15T07:03:08;2.60;99.90
14144;DHT22;7152;48.348;10.980;2022-11-15T07:05:34;2.60;99.90
14144;DHT22;7152;48.348;10.980;2022-11-15T07:08:00;2.60;99.90
14144;DHT22;7152;48.348;10.980;2022-11-15T07:10:26;2.60;99.90
14144;DHT22;7152;48.348;10.980;2022-11-15T07:12:53;2.70;99.90
14144;DHT22;7152;48.348;10.980;2022-11-15T07:15:22;2.70;99.90
14144;DHT22;7152;48.348;10.980;2022-11-15T07:17:47;2.70;99.90
14144;DHT22;7152;48.348;10.980;2022-11-15T07:20:13;2.70;99.90
14144;DHT22;7152;48.348;10.980;2022-11-15T07:22:40;2.80;99.90
14144;DHT22;7152;48.348;10.980;2022-11-15T07:25:06;2.90;99.90
14144;DHT22;7152;48.348;10.980;2022-11-15T07:27:32;2.90;99.90
14144;DHT22;7152;48.348;10.980;2022-11-15T07:29:57;2.90;99.90
14144;DHT22;7152;48.348;10.980;2022-11-15T07:32:23;2.90;99.90
14144;DHT22;7152;48.348;10.980;2022-11-15T07:34:48;3.00;99.90
14144;DHT22;7152;48.348;10.980;2022-11-15T07:37:14;3.00;99.90
14144;DHT22;7152;48.348;10.980;2022-11-15T07:39:40;3.00;99.90
14144;DHT22;7152;48.348;10.980;2022-11-15T07:42:05;3.00;99.90
14144;DHT22;7152;48.348;10.980;2022-11-15T07:44:50;3.10;99.90
14144;DHT22;7152;48.348;10.980;2022-11-15T07:47:15;3.10;99.90
14144;DHT22;7152;48.348;10.980;2022-11-15T07:49:41;3.30;99.90
14144;DHT22;7152;48.348;10.980;2022-11-15T07:52:06;3.30;99.90
14144;DHT22;7152;48.348;10.980;2022-11-15T07:54:32;3.40;99.90
14144;DHT22;7152;48.348;10.980;2022-11-15T07:56:58;3.50;99.90
14144;DHT22;7152;48.348;10.980;2022-11-15T07:59:23;3.50;99.90
14144;DHT22;7152;48.348;10.980;2022-11-15T08:01:49;3.60;99.90
14144;DHT22;7152;48.348;10.980;2022-11-15T08:04:14;3.60;99.90
14144;DHT22;7152;48.348;10.980;2022-11-15T08:06:40;3.70;99.90
14144;DHT22;7152;48.348;10.980;2022-11-15T08:09:06;3.70;99.90
14144;DHT22;7152;48.348;10.980;2022-11-15T08:11:31;3.70;99.90
14144;DHT22;7152;48.348;10.980;2022-11-15T08:13:58;3.80;99.90
14144;DHT22;7152;48.348;10.980;2022-11-15T08:16:23;3.90;99.90
14144;DHT22;7152;48.348;10.980;2022-11-15T08:18:49;4.00;99.90
14144;DHT22;7152;48.348;10.980;2022-11-15T08:21:18;4.10;99.90
14144;DHT22;7152;48.348;10.980;2022-11-15T08:23:44;4.20;99.90
14144;DHT22;7152;48.348;10.980;2022-11-15T08:26:10;4.30;99.90
14144;DHT22;7152;48.348;10.980;2022-11-15T08:28:35;4.40;99.90
14144;DHT22;7152;48.348;10.980;2022-11-15T08:31:02;4.50;99.90
14144;DHT22;7152;48.348;10.980;2022-11-15T08:33:28;4.50;99.90
14144;DHT22;7152;48.348;10.980;2022-11-15T08:35:57;4.60;99.90
14144;DHT22;7152;48.348;10.980;2022-11-15T08:38:23;4.80;99.90
14144;DHT22;7152;48.348;10.980;2022-11-15T08:40:50;4.90;99.90
14144;DHT22;7152;48.348;10.980;2022-11-15T08:43:16;5.00;99.90
14144;DHT22;7152;48.348;10.980;2022-11-15T08:45:42;5.10;99.90
14144;DHT22;7152;48.348;10.980;2022-11-15T08:48:07;5.10;99.90
14144;DHT22;7152;48.348;10.980;2022-11-15T08:50:33;5.20;99.90
14144;DHT22;7152;48.348;10.980;2022-11-15T08:53:07;5.30;99.90
14144;DHT22;7152;48.348;10.980;2022-11-15T08:55:38;5.40;99.90
14144;DHT22;7152;48.348;10.980;2022-11-15T08:58:04;5.50;99.90
14144;DHT22;7152;48.348;10.980;2022-11-15T09:00:30;5.50;99.90
14144;DHT22;7152;48.348;10.980;2022-11-15T09:02:56;5.60;99.90
14144;DHT22;7152;48.348;10.980;2022-11-15T09:05:21;5.70;99.90
14144;DHT22;7152;48.348;10.980;2022-11-15T09:07:47;5.80;99.90
14144;DHT22;7152;48.348;10.980;2022-11-15T09:10:12;5.80;99.90
14144;DHT22;7152;48.348;10.980;2022-11-15T09:12:38;5.90;99.90
14144;DHT22;7152;48.348;10.980;2022-11-15T09:15:05;5.90;99.90
14144;DHT22;7152;48.348;10.980;2022-11-15T09:17:31;6.00;99.90
14144;DHT22;7152;48.348;10.980;2022-11-15T09:19:57;6.10;99.90
14144;DHT22;7152;48.348;10.980;2022-11-15T09:22:22;6.10;99.90
14144;DHT22;7152;48.348;10.980;2022-11-15T09:24:48;6.20;99.90
14144;DHT22;7152;48.348;10.980;2022-11-15T09:27:14;6.20;99.90
14144;DHT22;7152;48.348;10.980;2022-11-15T09:29:39;6.30;99.90
14144;DHT22;7152;48.348;10.980;2022-11-15T09:32:05;6.30;99.90
14144;DHT22;7152;48.348;10.980;2022-11-15T09:34:31;6.40;99.90
14144;DHT22;7152;48.348;10.980;2022-11-15T09:36:57;6.40;99.90
14144;DHT22;7152;48.348;10.980;2022-11-15T09:39:22;6.40;99.90
14144;DHT22;7152;48.348;10.980;2022-11-15T09:41:56;6.50;99.90
14144;DHT22;7152;48.348;10.980;2022-11-15T09:44:35;6.50;99.90
14144;DHT22;7152;48.348;10.980;2022-11-15T09:49:55;6.60;99.90
14144;DHT22;7152;48.348;10.980;2022-11-15T09:52:23;6.70;99.90
14144;DHT22;7152;48.348;10.980;2022-11-15T09:54:50;6.70;99.90
14144;DHT22;7152;48.348;10.980;2022-11-15T10:05:40;6.90;99.90
14144;DHT22;7152;48.348;10.980;2022-11-15T10:11:14;7.10;99.90
14144;DHT22;7152;48.348;10.980;2022-11-15T10:13:43;7.10;99.90
14144;DHT22;7152;48.348;10.980;2022-11-15T10:24:28;7.40;99.90
14144;DHT22;7152;48.348;10.980;2022-11-15T10:26:55;7.40;99.90
14144;DHT22;7152;48.348;10.980;2022-11-15T10:29:22;7.50;99.90
14144;DHT22;7152;48.348;10.980;2022-11-15T10:31:48;7.60;99.90
14144;DHT22;7152;48.348;10.980;2022-11-15T10:34:19;7.70;99.90
14144;DHT22;7152;48.348;10.980;2022-11-15T10:36:47;7.80;99.90
14144;DHT22;7152;48.348;10.980;2022-11-15T10:39:19;7.90;99.90
14144;DHT22;7152;48.348;10.980;2022-11-15T10:41:44;8.00;99.90
14144;DHT22;7152;48.348;10.980;2022-11-15T10:47:04;8.10;99.90
14144;DHT22;7152;48.348;10.980;2022-11-15T10:49:32;8.20;99.90
14144;DHT22;7152;48.348;10.980;2022-11-15T10:52:16;8.40;99.90
14144;DHT22;7152;48.348;10.980;2022-11-15T10:57:21;8.50;99.90
14144;DHT22;7152;48.348;10.980;2022-11-15T11:00:05;8.50;99.90
14144;DHT22;7152;48.348;10.980;2022-11-15T11:02:38;8.60;99.90
14144;DHT22;7152;48.348;10.980;2022-11-15T11:10:36;8.80;99.90
14144;DHT22;7152;48.348;10.980;2022-11-15T11:13:22;8.90;99.90
14144;DHT22;7152;48.348;10.980;2022-11-15T11:15:55;9.00;99.90
14144;DHT22;7152;48.348;10.980;2022-11-15T11:18:29;9.10;99.90
14144;DHT22;7152;48.348;10.980;2022-11-15T11:21:03;9.10;99.90
14144;DHT22;7152;48.348;10.980;2022-11-15T11:31:55;9.50;99.90
14144;DHT22;7152;48.348;10.980;2022-11-15T11:35:22;9.00;99.90
14144;DHT22;7152;48.348;10.980;2022-11-15T11:50:46;10.50;99.90
14144;DHT22;7152;48.348;10.980;2022-11-15T11:53:47;10.60;99.90
14144;DHT22;7152;48.348;10.980;2022-11-15T11:56:25;10.80;99.90
14144;DHT22;7152;48.348;10.980;2022-11-15T11:58:54;10.90;99.90
14144;DHT22;7152;48.348;10.980;2022-11-15T12:01:44;11.00;99.90
14144;DHT22;7152;48.348;10.980;2022-11-15T12:06:58;11.10;99.90
14144;DHT22;7152;48.348;10.980;2022-11-15T12:09:38;11.10;99.90
14144;DHT22;7152;48.348;10.980;2022-11-15T12:15:27;11.10;99.90
14144;DHT22;7152;48.348;10.980;2022-11-15T12:17:55;11.10;99.90
14144;DHT22;7152;48.348;10.980;2022-11-15T12:21:13;11.00;99.90
14144;DHT22;7152;48.348;10.980;2022-11-15T12:28:24;11.00;99.90
14144;DHT22;7152;48.348;10.980;2022-11-15T12:31:11;11.00;99.90
14144;DHT22;7152;48.348;10.980;2022-11-15T12:33:48;11.10;99.90
14144;DHT22;7152;48.348;10.980;2022-11-15T12:38:55;11.30;99.90
14144;DHT22;7152;48.348;10.980;2022-11-15T12:41:23;11.40;99.90
14144;DHT22;7152;48.348;10.980;2022-11-15T12:43:50;11.60;99.90
14144;DHT22;7152;48.348;10.980;2022-11-15T12:46:21;11.70;99.90
14144;DHT22;7152;48.348;10.980;2022-11-15T12:48:50;12.00;99.90
14144;DHT22;7152;48.348;10.980;2022-11-15T12:51:20;12.20;99.90
14144;DHT22;7152;48.348;10.980;2022-11-15T12:53:46;12.50;99.90
14144;DHT22;7152;48.348;10.980;2022-11-15T13:06:47;13.30;99.90
14144;DHT22;7152;48.348;10.980;2022-11-15T13:14:53;13.10;99.90
14144;DHT22;7152;48.348;10.980;2022-11-15T13:28:17;12.00;99.90
14144;DHT22;7152;48.348;10.980;2022-11-15T13:33:34;11.70;99.90
14144;DHT22;7152;48.348;10.980;2022-11-15T13:36:09;11.60;99.90
14144;DHT22;7152;48.348;10.980;2022-11-15T13:38:42;11.50;99.90
14144;DHT22;7152;48.348;10.980;2022-11-15T13:41:20;11.40;99.90
14144;DHT22;7152;48.348;10.980;2022-11-15T13:43:47;11.40;99.90
14144;DHT22;7152;48.348;10.980;2022-11-15T13:46:16;11.30;99.90
14144;DHT22;7152;48.348;10.980;2022-11-15T13:48:43;11.20;99.90
14144;DHT22;7152;48.348;10.980;2022-11-15T13:51:16;11.10;99.90
14144;DHT22;7152;48.348;10.980;2022-11-15T13:53:48;11.10;99.90
14144;DHT22;7152;48.348;10.980;2022-11-15T13:56:16;11.00;99.90
14144;DHT22;7152;48.348;10.980;2022-11-15T13:58:43;11.00;99.90
14144;DHT22;7152;48.348;10.980;2022-11-15T14:01:14;10.90;99.90
14144;DHT22;7152;48.348;10.980;2022-11-15T14:04:10;10.80;99.90
14144;DHT22;7152;48.348;10.980;2022-11-15T14:06:45;10.70;99.90
14144;DHT22;7152;48.348;10.980;2022-11-15T14:11:37;10.50;99.90
14144;DHT22;7152;48.348;10.980;2022-11-15T14:14:14;10.40;99.90
14144;DHT22;7152;48.348;10.980;2022-11-15T14:16:45;10.30;99.90
14144;DHT22;7152;48.348;10.980;2022-11-15T14:19:13;10.30;99.90
14144;DHT22;7152;48.348;10.980;2022-11-15T14:22:15;10.20;99.90
14144;DHT22;7152;48.348;10.980;2022-11-15T14:24:43;10.10;99.90
14144;DHT22;7152;48.348;10.980;2022-11-15T14:27:17;10.10;99.90
14144;DHT22;7152;48.348;10.980;2022-11-15T14:29:43;10.10;99.90
14144;DHT22;7152;48.348;10.980;2022-11-15T14:32:17;10.10;99.90
14144;DHT22;7152;48.348;10.980;2022-11-15T14:34:43;10.10;99.90
14144;DHT22;7152;48.348;10.980;2022-11-15T14:37:25;10.10;99.90
14144;DHT22;7152;48.348;10.980;2022-11-15T14:39:51;10.10;99.90
14144;DHT22;7152;48.348;10.980;2022-11-15T14:42:18;10.20;99.90
14144;DHT22;7152;48.348;10.980;2022-11-15T14:44:44;10.10;99.90
14144;DHT22;7152;48.348;10.980;2022-11-15T14:47:09;10.10;99.90
14144;DHT22;7152;48.348;10.980;2022-11-15T14:49:35;10.10;99.90
14144;DHT22;7152;48.348;10.980;2022-11-15T14:52:00;10.00;99.90
14144;DHT22;7152;48.348;10.980;2022-11-15T14:54:26;10.00;99.90
14144;DHT22;7152;48.348;10.980;2022-11-15T14:56:52;10.00;99.90
14144;DHT22;7152;48.348;10.980;2022-11-15T14:59:17;9.90;99.90
14144;DHT22;7152;48.348;10.980;2022-11-15T15:01:43;9.80;99.90
14144;DHT22;7152;48.348;10.980;2022-11-15T15:04:10;9.80;99.90
14144;DHT22;7152;48.348;10.980;2022-11-15T15:06:36;9.70;99.90
14144;DHT22;7152;48.348;10.980;2022-11-15T15:09:02;9.60;99.90
14144;DHT22;7152;48.348;10.980;2022-11-15T15:11:30;9.60;99.90
14144;DHT22;7152;48.348;10.980;2022-11-15T15:13:56;9.50;99.90
14144;DHT22;7152;48.348;10.980;2022-11-15T15:16:24;9.50;99.90
14144;DHT22;7152;48.348;10.980;2022-11-15T15:18:50;9.40;99.90
14144;DHT22;7152;48.348;10.980;2022-11-15T15:21:28;9.30;99.90
14144;DHT22;7152;48.348;10.980;2022-11-15T15:23:54;9.30;99.90
14144;DHT22;7152;48.348;10.980;2022-11-15T15:26:20;9.20;99.90
14144;DHT22;7152;48.348;10.980;2022-11-15T15:28:46;9.10;99.90
14144;DHT22;7152;48.348;10.980;2022-11-15T15:31:14;9.10;99.90
14144;DHT22;7152;48.348;10.980;2022-11-15T15:33:39;9.00;99.90
14144;DHT22;7152;48.348;10.980;2022-11-15T15:36:12;8.90;99.90
14144;DHT22;7152;48.348;10.980;2022-11-15T15:38:38;8.80;99.90
14144;DHT22;7152;48.348;10.980;2022-11-15T15:41:09;8.80;99.90
14144;DHT22;7152;48.348;10.980;2022-11-15T15:43:35;8.70;99.90
14144;DHT22;7152;48.348;10.980;2022-11-15T15:46:01;8.60;99.90
14144;DHT22;7152;48.348;10.980;2022-11-15T15:48:26;8.60;99.90
14144;DHT22;7152;48.348;10.980;2022-11-15T15:50:52;8.50;99.90
14144;DHT22;7152;48.348;10.980;2022-11-15T15:53:17;8.50;99.90
14144;DHT22;7152;48.348;10.980;2022-11-15T15:55:43;8.50;99.90
14144;DHT22;7152;48.348;10.980;2022-11-15T15:58:09;8.50;99.90
14144;DHT22;7152;48.348;10.980;2022-11-15T16:00:35;8.50;99.90
14144;DHT22;7152;48.348;10.980;2022-11-15T16:03:02;8.40;99.90
14144;DHT22;7152;48.348;10.980;2022-11-15T16:05:28;8.40;99.90
14144;DHT22;7152;48.348;10.980;2022-11-15T16:07:54;8.40;99.90
14144;DHT22;7152;48.348;10.980;2022-11-15T16:10:22;8.40;99.90
14144;DHT22;7152;48.348;10.980;2022-11-15T16:12:48;8.40;99.90
14144;DHT22;7152;48.348;10.980;2022-11-15T16:15:14;8.40;99.90
14144;DHT22;7152;48.348;10.980;2022-11-15T16:17:45;8.40;99.90
14144;DHT22;7152;48.348;10.980;2022-11-15T16:23:02;8.30;99.90
14144;DHT22;7152;48.348;10.980;2022-11-15T16:25:28;8.30;99.90
14144;DHT22;7152;48.348;10.980;2022-11-15T16:27:55;8.30;99.90
14144;DHT22;7152;48.348;10.980;2022-11-15T16:30:22;8.30;99.90
14144;DHT22;7152;48.348;10.980;2022-11-15T16:32:48;8.40;99.90
14144;DHT22;7152;48.348;10.980;2022-11-15T16:35:16;8.40;99.90
14144;DHT22;7152;48.348;10.980;2022-11-15T16:37:42;8.40;99.90
14144;DHT22;7152;48.348;10.980;2022-11-15T16:40:32;8.40;99.90
14144;DHT22;7152;48.348;10.980;2022-11-15T16:42:59;8.50;99.90
14144;DHT22;7152;48.348;10.980;2022-11-15T16:45:27;8.40;99.90
14144;DHT22;7152;48.348;10.980;2022-11-15T16:47:54;8.40;99.90
14144;DHT22;7152;48.348;10.980;2022-11-15T16:50:29;8.40;99.90
14144;DHT22;7152;48.348;10.980;2022-11-15T16:52:58;8.40;99.90
14144;DHT22;7152;48.348;10.980;2022-11-15T16:55:28;8.40;99.90
14144;DHT22;7152;48.348;10.980;2022-11-15T16:57:55;8.40;99.90
14144;DHT22;7152;48.348;10.980;2022-11-15T17:00:23;8.40;99.90
14144;DHT22;7152;48.348;10.980;2022-11-15T17:02:50;8.40;99.90
14144;DHT22;7152;48.348;10.980;2022-11-15T17:05:19;8.40;99.90
14144;DHT22;7152;48.348;10.980;2022-11-15T17:07:47;8.40;99.90
14144;DHT22;7152;48.348;10.980;2022-11-15T17:10:18;8.40;99.90
14144;DHT22;7152;48.348;10.980;2022-11-15T17:12:44;8.40;99.90
14144;DHT22;7152;48.348;10.980;2022-11-15T17:15:13;8.40;99.90
14144;DHT22;7152;48.348;10.980;2022-11-15T17:17:39;8.30;99.90
14144;DHT22;7152;48.348;10.980;2022-11-15T17:20:08;8.30;99.90
14144;DHT22;7152;48.348;10.980;2022-11-15T17:22:37;8.30;99.90
14144;DHT22;7152;48.348;10.980;2022-11-15T17:25:03;8.20;99.90
14144;DHT22;7152;48.348;10.980;2022-11-15T17:27:30;8.20;99.90
14144;DHT22;7152;48.348;10.980;2022-11-15T17:29:56;8.20;99.90
14144;DHT22;7152;48.348;10.980;2022-11-15T17:32:21;8.20;99.90
14144;DHT22;7152;48.348;10.980;2022-11-15T17:34:47;8.20;99.90
14144;DHT22;7152;48.348;10.980;2022-11-15T17:37:13;8.10;99.90
14144;DHT22;7152;48.348;10.980;2022-11-15T17:39:38;8.10;99.90
14144;DHT22;7152;48.348;10.980;2022-11-15T17:42:04;8.10;99.90
14144;DHT22;7152;48.348;10.980;2022-11-15T17:44:30;8.00;99.90
14144;DHT22;7152;48.348;10.980;2022-11-15T17:46:56;8.00;99.90
14144;DHT22;7152;48.348;10.980;2022-11-15T17:49:22;8.00;99.90
14144;DHT22;7152;48.348;10.980;2022-11-15T17:51:48;8.00;99.90
14144;DHT22;7152;48.348;10.980;2022-11-15T17:54:13;8.00;99.90
14144;DHT22;7152;48.348;10.980;2022-11-15T17:56:39;8.00;99.90
14144;DHT22;7152;48.348;10.980;2022-11-15T17:59:06;8.00;99.90
14144;DHT22;7152;48.348;10.980;2022-11-15T18:01:33;8.00;99.90
14144;DHT22;7152;48.348;10.980;2022-11-15T18:04:00;8.00;99.90
14144;DHT22;7152;48.348;10.980;2022-11-15T18:06:28;8.00;99.90
14144;DHT22;7152;48.348;10.980;2022-11-15T18:08:57;8.00;99.90